Time;durP1;ratioP1;P1;durP2;ratioP2;P2;SDS_P1;SDS_P2;PMS_P1;PMS_P2;Temp;Humidity;BMP_temperature;BMP_pressure;BME280_temperature;BME280_humidity;BME280_pressure;Samples;Min_cycle;Max_cycle;Signal;HPM_P1;HPM_P2
2022/08/15 00:00:31;;;;;;;;;;;;;;;28.05;44.66;99114.16;2088075;28;19956;-81
2022/08/15 00:01:36;;;;;;;;;;;;;;;28.05;44.62;99119.69;2090810;28;19919;-81
2022/08/15 00:02:39;;;;;;;;;;;;;;;28.04;44.80;99117.97;2097629;28;19966;-81
2022/08/15 00:03:45;;;;;;;;;;;;;;;28.04;44.66;99112.44;2097938;28;19923;-81
2022/08/15 00:04:45;;;;;;;;;;;;;;;28.04;44.62;99112.44;2099045;28;19912;-79
2022/08/15 00:05:46;;;;;;;;;;;;;;;28.03;44.51;99107.13;2094918;28;19908;-80
2022/08/15 00:06:47;;;;;;;;;;;;;;;28.03;44.60;99109.88;2097200;28;20173;-80
2022/08/15 00:07:48;;;;;;;;;;;;;;;28.02;44.67;99114.59;2095892;28;20569;-80
2022/08/15 00:08:50;;;;;;;;;;;;;;;28.02;44.73;99109.03;2096158;28;20095;-79
2022/08/15 00:09:50;;;;;;;;;;;;;;;28.01;44.50;99110.13;2097996;28;19949;-80
2022/08/15 00:10:51;;;;;;;;;;;;;;;28.01;44.55;99112.91;2095040;28;19912;-81
2022/08/15 00:11:53;;;;;;;;;;;;;;;28.02;44.67;99111.81;2091998;28;19912;-79
2022/08/15 00:12:54;;;;;;;;;;;;;;;28.02;44.60;99102.66;2091876;28;19920;-80
2022/08/15 00:13:56;;;;;;;;;;;;;;;28.02;44.68;99108.22;2095486;28;19912;-80
2022/08/15 00:14:57;;;;;;;;;;;;;;;28.01;44.66;99110.13;2091732;28;19917;-81
2022/08/15 00:15:57;;;;;;;;;;;;;;;28.02;44.67;99105.44;2097887;28;19916;-80
2022/08/15 00:17:02;;;;;;;;;;;;;;;28.01;44.72;99107.38;2084850;28;19916;-80
2022/08/15 00:18:02;;;;;;;;;;;;;;;28.02;44.60;99106.28;2090384;28;20395;-81
2022/08/15 00:19:07;;;;;;;;;;;;;;;28.03;44.72;99104.34;2097221;28;20805;-81
2022/08/15 00:20:09;;;;;;;;;;;;;;;28.01;44.79;99099.06;2096476;28;19963;-81
2022/08/15 00:21:12;;;;;;;;;;;;;;;28.02;44.79;99109.03;2092992;28;19918;-81
2022/08/15 00:22:17;;;;;;;;;;;;;;;28.03;44.69;99098.81;2098968;28;19916;-81
2022/08/15 00:23:19;;;;;;;;;;;;;;;28.02;44.61;99095.19;2096411;28;20018;-81
2022/08/15 00:24:25;;;;;;;;;;;;;;;28.04;44.51;99094.97;2095420;28;20701;-81
2022/08/15 00:25:26;;;;;;;;;;;;;;;28.03;44.64;99099.69;2091370;28;20375;-79
2022/08/15 00:26:26;;;;;;;;;;;;;;;28.04;44.58;99100.50;2093727;28;20283;-81
2022/08/15 00:27:27;;;;;;;;;;;;;;;28.04;44.42;99100.50;2090211;28;19963;-81
2022/08/15 00:28:28;;;;;;;;;;;;;;;28.05;44.53;99096.66;2087299;28;19916;-81
2022/08/15 00:29:31;;;;;;;;;;;;;;;28.03;44.76;99096.91;2100720;28;19912;-81
2022/08/15 00:30:33;;;;;;;;;;;;;;;28.03;44.49;99102.44;2093041;28;20576;-81
2022/08/15 00:31:35;;;;;;;;;;;;;;;28.03;44.52;99094.13;2092374;28;20066;-80
2022/08/15 00:32:36;;;;;;;;;;;;;;;28.03;44.42;99094.13;2084318;28;19921;-81
2022/08/15 00:33:38;;;;;;;;;;;;;;;28.04;44.59;99103.28;2087924;28;19919;-81
2022/08/15 00:34:41;;;;;;;;;;;;;;;28.03;44.39;99096.91;2095420;28;20339;-81
2022/08/15 00:35:42;;;;;;;;;;;;;;;28.03;44.57;99099.69;2091403;28;19923;-81
2022/08/15 00:36:43;;;;;;;;;;;;;;;28.03;44.43;99099.69;2090361;28;19931;-80
2022/08/15 00:37:43;;;;;;;;;;;;;;;28.04;44.45;99095.81;2097488;28;19924;-80
2022/08/15 00:38:44;;;;;;;;;;;;;;;28.03;44.61;99096.91;2089128;28;20040;-79
2022/08/15 00:39:45;;;;;;;;;;;;;;;28.04;44.35;99100.50;2094457;28;19924;-81
2022/08/15 00:42:08;;;;;;;;;;;;;;;28.03;44.46;99099.69;2093168;28;19913;-80
2022/08/15 00:43:09;;;;;;;;;;;;;;;28.03;44.47;99104.34;2088956;28;19971;-81
2022/08/15 00:44:10;;;;;;;;;;;;;;;28.03;44.59;99102.44;2092390;28;20233;-81
2022/08/15 00:45:10;;;;;;;;;;;;;;;28.03;44.52;99099.69;2094026;28;20155;-78
2022/08/15 00:46:12;;;;;;;;;;;;;;;28.01;44.59;99093.53;2094548;28;19966;-80
2022/08/15 00:47:15;;;;;;;;;;;;;;;28.02;44.47;99097.97;2092019;28;19916;-80
2022/08/15 00:49:35;;;;;;;;;;;;;;;28.01;44.54;99087.97;2091071;28;19920;-80
2022/08/15 00:50:37;;;;;;;;;;;;;;;28.01;44.63;99093.53;2095882;28;19916;-81
2022/08/15 00:51:46;;;;;;;;;;;;;;;28.01;44.58;99087.97;2092578;28;19912;-81
2022/08/15 00:52:46;;;;;;;;;;;;;;;28.03;44.64;99096.03;2091839;28;19912;-80
2022/08/15 00:53:50;;;;;;;;;;;;;;;28.03;44.68;99093.28;2090710;28;19912;-81
2022/08/15 00:54:52;;;;;;;;;;;;;;;28.03;44.67;99094.13;2093810;28;19916;-81
2022/08/15 00:55:53;;;;;;;;;;;;;;;28.02;44.65;99095.19;2087447;28;19962;-81
2022/08/15 00:56:58;;;;;;;;;;;;;;;28.02;44.61;99095.19;2082362;28;19948;-81
2022/08/15 00:58:00;;;;;;;;;;;;;;;28.02;44.68;99097.97;2089981;28;19916;-80
2022/08/15 00:59:01;;;;;;;;;;;;;;;28.01;44.77;99096.28;2084632;28;19917;-81
2022/08/15 01:00:09;;;;;;;;;;;;;;;28.01;44.69;99096.28;2086203;28;19928;-81
2022/08/15 01:01:11;;;;;;;;;;;;;;;28.01;44.73;99096.28;2080100;28;20007;-81
2022/08/15 01:02:14;;;;;;;;;;;;;;;28.00;44.70;99094.56;2081941;28;19916;-81
2022/08/15 01:03:20;;;;;;;;;;;;;;;27.99;44.83;99093.75;2084034;28;20372;-81
2022/08/15 01:04:20;;;;;;;;;;;;;;;27.98;44.82;99094.00;2082139;28;20031;-81
2022/08/15 01:05:21;;;;;;;;;;;;;;;27.96;44.86;99098.91;2080910;28;20050;-81
2022/08/15 01:06:22;;;;;;;;;;;;;;;27.96;44.80;99098.91;2082486;28;19912;-80
2022/08/15 01:07:22;;;;;;;;;;;;;;;27.96;44.99;99093.38;2087900;28;19923;-81
2022/08/15 01:08:26;;;;;;;;;;;;;;;27.95;44.90;99091.66;2089132;28;19916;-81
2022/08/15 01:09:27;;;;;;;;;;;;;;;27.95;44.93;99091.66;2087432;28;19969;-81
2022/08/15 01:10:28;;;;;;;;;;;;;;;27.95;44.92;99088.91;2087804;28;19916;-80
2022/08/15 01:11:31;;;;;;;;;;;;;;;27.95;44.70;99089.75;2082964;28;19917;-80
2022/08/15 01:12:32;;;;;;;;;;;;;;;27.95;44.78;99088.91;2081355;28;19908;-80
2022/08/15 01:13:33;;;;;;;;;;;;;;;27.96;44.83;99090.59;2087028;28;19916;-81
2022/08/15 01:14:36;;;;;;;;;;;;;;;27.97;44.88;99095.06;2088817;28;19916;-80
2022/08/15 01:15:36;;;;;;;;;;;;;;;27.97;44.78;99095.06;2082690;28;19913;-81
2022/08/15 01:16:38;;;;;;;;;;;;;;;27.97;44.83;99089.50;2083864;28;19913;-81
2022/08/15 01:17:39;;;;;;;;;;;;;;;27.96;44.72;99094.22;2083260;28;19923;-81
2022/08/15 01:18:40;;;;;;;;;;;;;;;27.95;44.71;99092.53;2086241;28;20394;-82
2022/08/15 01:20:03;;;;;;;;;;;;;;;27.94;44.72;99095.53;2087970;28;20279;-80
2022/08/15 01:21:10;;;;;;;;;;;;;;;27.92;44.78;99092.97;2075920;28;19981;-80
2022/08/15 01:22:13;;;;;;;;;;;;;;;27.92;44.68;99086.59;2080589;28;20000;-80
2022/08/15 01:23:23;;;;;;;;;;;;;;;27.93;44.71;99083.59;2084932;28;19995;-80
2022/08/15 01:24:26;;;;;;;;;;;;;;;27.93;44.67;99089.16;2097889;28;20433;-80
2022/08/15 01:25:29;;;;;;;;;;;;;;;27.93;44.60;99086.38;2080626;28;19920;-81
2022/08/15 01:26:31;;;;;;;;;;;;;;;27.94;44.65;99090.81;2082866;28;19917;-80
2022/08/15 01:27:34;;;;;;;;;;;;;;;27.93;44.63;99088.31;2088729;28;20027;-80
2022/08/15 01:28:37;;;;;;;;;;;;;;;27.93;44.86;99088.31;2088213;28;19913;-80
2022/08/15 01:29:37;;;;;;;;;;;;;;;27.93;44.62;99082.78;2088438;28;19916;-81
2022/08/15 01:30:40;;;;;;;;;;;;;;;27.91;44.72;99085.75;2081360;28;19947;-80
2022/08/15 01:31:40;;;;;;;;;;;;;;;27.92;44.60;99078.28;2084828;28;19916;-81
2022/08/15 01:32:42;;;;;;;;;;;;;;;27.93;44.70;99085.53;2080694;28;19921;-81
2022/08/15 01:33:45;;;;;;;;;;;;;;;27.93;44.68;99077.22;2085124;28;19970;-81
2022/08/15 01:34:45;;;;;;;;;;;;;;;27.94;44.45;99081.69;2084348;28;19931;-80
2022/08/15 01:35:48;;;;;;;;;;;;;;;27.95;44.58;99081.47;2084816;28;19913;-79
2022/08/15 01:36:49;;;;;;;;;;;;;;;27.95;44.50;99075.03;2089585;28;19951;-80
2022/08/15 01:37:50;;;;;;;;;;;;;;;27.96;44.70;99082.28;2088685;28;19923;-81
2022/08/15 01:39:03;;;;;;;;;;;;;;;27.95;44.66;99081.47;2088210;28;20658;-81
2022/08/15 01:40:10;;;;;;;;;;;;;;;27.95;44.61;99075.91;2081673;28;19974;-81
2022/08/15 01:41:19;;;;;;;;;;;;;;;27.95;44.65;99075.03;2086236;28;20366;-79
2022/08/15 01:42:22;;;;;;;;;;;;;;;27.95;44.50;99080.59;2088203;28;21581;-81
2022/08/15 01:43:24;;;;;;;;;;;;;;;27.95;44.62;99075.03;2073976;28;19917;-80
2022/08/15 01:44:28;;;;;;;;;;;;;;;27.95;44.60;99080.59;2084045;28;20016;-80
2022/08/15 01:45:30;;;;;;;;;;;;;;;27.92;44.61;99081.91;2082856;28;19950;-80
2022/08/15 01:46:35;;;;;;;;;;;;;;;27.93;44.70;99078.06;2085932;28;19912;-81
2022/08/15 01:47:46;;;;;;;;;;;;;;;27.92;44.64;99081.06;2078833;28;19974;-81
2022/08/15 01:48:50;;;;;;;;;;;;;;;27.90;44.61;99078.50;2087474;28;19988;-80
2022/08/15 01:49:52;;;;;;;;;;;;;;;27.92;44.59;99083.81;2087019;28;20450;-80
2022/08/15 01:51:03;;;;;;;;;;;;;;;27.91;44.47;99082.16;2082691;28;20537;-80
2022/08/15 01:52:04;;;;;;;;;;;;;;;27.92;44.64;99081.91;2087404;28;19924;-80
2022/08/15 01:53:11;;;;;;;;;;;;;;;27.91;44.47;99083.00;2088658;28;20422;-81
2022/08/15 01:54:12;;;;;;;;;;;;;;;27.91;44.44;99079.38;2086273;28;20330;-81
2022/08/15 01:55:15;;;;;;;;;;;;;;;27.90;44.62;99083.22;2086092;28;20290;-81
2022/08/15 01:56:28;;;;;;;;;;;;;;;27.90;44.40;99086.81;2087830;28;20131;-82
2022/08/15 01:57:28;;;;;;;;;;;;;;;27.89;44.39;99082.38;2086703;28;20276;-80
2022/08/15 01:58:28;;;;;;;;;;;;;;;27.89;44.60;99084.31;2077242;28;19955;-80
2022/08/15 01:59:28;;;;;;;;;;;;;;;27.89;44.47;99084.31;2088070;28;19916;-80
2022/08/15 02:00:29;;;;;;;;;;;;;;;27.89;44.40;99087.91;2089987;28;19916;-81
2022/08/15 02:01:51;;;;;;;;;;;;;;;27.89;44.42;99087.06;2088359;28;19921;-80
2022/08/15 02:02:51;;;;;;;;;;;;;;;27.89;44.40;99084.31;2088819;28;19912;-80
2022/08/15 02:03:52;;;;;;;;;;;;;;;27.89;44.47;99087.91;2083214;28;19974;-81
2022/08/15 02:04:53;;;;;;;;;;;;;;;27.89;44.38;99081.53;2089273;28;19924;-81
2022/08/15 02:05:53;;;;;;;;;;;;;;;27.88;44.49;99083.47;2087720;28;19917;-81
2022/08/15 02:06:54;;;;;;;;;;;;;;;27.88;44.52;99082.59;2086031;28;19924;-80
2022/08/15 02:07:54;;;;;;;;;;;;;;;27.87;44.34;99078.16;2081180;28;20216;-80
2022/08/15 02:08:56;;;;;;;;;;;;;;;27.86;44.49;99080.06;2082122;28;19952;-80
2022/08/15 02:09:57;;;;;;;;;;;;;;;27.85;44.29;99072.00;2085182;28;20012;-81
2022/08/15 02:10:57;;;;;;;;;;;;;;;27.84;44.37;99070.31;2088995;28;19917;-81
2022/08/15 02:12:00;;;;;;;;;;;;;;;27.84;44.44;99073.06;2084278;28;20445;-81
2022/08/15 02:13:00;;;;;;;;;;;;;;;27.84;44.50;99073.91;2089265;28;19944;-81
2022/08/15 02:14:01;;;;;;;;;;;;;;;27.84;44.27;99068.38;2086301;28;19920;-81
2022/08/15 02:15:06;;;;;;;;;;;;;;;27.83;44.42;99065.84;2081416;28;19912;-80
2022/08/15 02:16:06;;;;;;;;;;;;;;;27.84;44.18;99067.53;2086575;28;20359;-80
2022/08/15 02:17:10;;;;;;;;;;;;;;;27.84;44.18;99068.38;2089561;28;19916;-80
2022/08/15 02:18:11;;;;;;;;;;;;;;;27.85;44.18;99058.13;2084786;28;20011;-81
2022/08/15 02:19:12;;;;;;;;;;;;;;;27.85;44.21;99069.22;2086870;28;19927;-80
2022/08/15 02:20:15;;;;;;;;;;;;;;;27.84;44.14;99059.22;2083695;28;19917;-81
2022/08/15 02:21:15;;;;;;;;;;;;;;;27.84;44.20;99062.00;2085292;28;19909;-81
2022/08/15 02:22:17;;;;;;;;;;;;;;;27.84;44.15;99067.53;2088968;28;19919;-80
2022/08/15 02:23:18;;;;;;;;;;;;;;;27.84;44.17;99068.38;2079844;28;19927;-80
2022/08/15 02:24:20;;;;;;;;;;;;;;;27.84;44.28;99062.84;2077063;28;19920;-81
2022/08/15 02:25:20;;;;;;;;;;;;;;;27.85;44.25;99069.22;2086372;28;19917;-81
2022/08/15 02:26:24;;;;;;;;;;;;;;;27.86;44.25;99065.38;2086900;28;19939;-83
2022/08/15 02:27:28;;;;;;;;;;;;;;;27.85;44.25;99072.81;2087622;28;20230;-82
2022/08/15 02:28:29;;;;;;;;;;;;;;;27.86;43.99;99065.38;2076597;28;20448;-81
2022/08/15 02:29:30;;;;;;;;;;;;;;;27.86;44.06;99068.16;2080790;28;19956;-81
2022/08/15 02:30:31;;;;;;;;;;;;;;;27.85;44.30;99063.69;2087683;28;19916;-81
2022/08/15 02:31:32;;;;;;;;;;;;;;;27.85;44.05;99072.00;2083258;28;19942;-80
2022/08/15 02:32:35;;;;;;;;;;;;;;;27.85;44.29;99066.44;2088314;28;19908;-79
2022/08/15 02:33:35;;;;;;;;;;;;;;;27.84;44.26;99067.53;2082850;28;19921;-81
2022/08/15 02:34:35;;;;;;;;;;;;;;;27.85;44.13;99072.00;2084495;28;19925;-82
2022/08/15 02:35:36;;;;;;;;;;;;;;;27.85;44.12;99078.38;2088308;28;19916;-80
2022/08/15 02:36:37;;;;;;;;;;;;;;;27.85;43.96;99074.75;2084622;28;20574;-80
2022/08/15 02:37:38;;;;;;;;;;;;;;;27.85;44.15;99069.22;2081167;28;19943;-80
2022/08/15 02:38:39;;;;;;;;;;;;;;;27.86;44.14;99080.06;2081070;28;19912;-80
2022/08/15 02:39:40;;;;;;;;;;;;;;;27.86;44.00;99074.53;2083904;28;20003;-80
2022/08/15 02:40:43;;;;;;;;;;;;;;;27.85;44.01;99074.75;2085451;28;19959;-82
2022/08/15 02:41:49;;;;;;;;;;;;;;;27.85;44.19;99077.53;2081133;28;20596;-81
2022/08/15 02:42:50;;;;;;;;;;;;;;;27.86;44.10;99079.25;2085083;28;20003;-81
2022/08/15 02:43:51;;;;;;;;;;;;;;;27.87;44.16;99083.69;2085097;28;20079;-81
2022/08/15 02:44:51;;;;;;;;;;;;;;;27.87;44.00;99080.91;2083873;28;19913;-80
2022/08/15 02:45:52;;;;;;;;;;;;;;;27.87;44.20;99075.38;2080387;28;20190;-80
2022/08/15 02:46:54;;;;;;;;;;;;;;;27.87;44.07;99072.59;2090285;28;19913;-81
2022/08/15 02:47:54;;;;;;;;;;;;;;;27.87;44.06;99078.16;2083916;28;19936;-81
2022/08/15 02:49:01;;;;;;;;;;;;;;;27.87;44.19;99073.44;2082818;28;20094;-81
2022/08/15 02:50:02;;;;;;;;;;;;;;;27.87;44.18;99072.59;2087278;28;19913;-80
2022/08/15 02:51:02;;;;;;;;;;;;;;;27.89;44.03;99076.00;2086930;28;19944;-80
2022/08/15 02:52:06;;;;;;;;;;;;;;;27.89;44.12;99070.47;2089987;28;19915;-80
2022/08/15 02:53:09;;;;;;;;;;;;;;;27.88;44.27;99072.38;2086889;28;19920;-80
2022/08/15 02:54:10;;;;;;;;;;;;;;;27.89;44.32;99079.59;2090801;28;20027;-81
2022/08/15 02:55:11;;;;;;;;;;;;;;;27.88;44.31;99075.16;2090032;28;19963;-80
2022/08/15 02:56:12;;;;;;;;;;;;;;;27.88;44.37;99074.28;2092631;28;19931;-81
2022/08/15 02:57:12;;;;;;;;;;;;;;;27.86;44.35;99065.38;2089601;28;19922;-80
2022/08/15 02:58:13;;;;;;;;;;;;;;;27.87;44.25;99075.38;2087182;28;19954;-80
2022/08/15 02:59:13;;;;;;;;;;;;;;;27.87;44.34;99072.59;2099156;28;19942;-80
2022/08/15 03:00:15;;;;;;;;;;;;;;;27.85;44.39;99072.81;2097543;28;19916;-81
2022/08/15 03:01:16;;;;;;;;;;;;;;;27.86;44.27;99073.69;2097042;28;19992;-81
2022/08/15 03:02:17;;;;;;;;;;;;;;;27.84;44.32;99065.59;2084340;28;20637;-80
2022/08/15 03:03:20;;;;;;;;;;;;;;;27.85;44.42;99066.44;2088106;28;19924;-79
2022/08/15 03:04:22;;;;;;;;;;;;;;;27.85;44.27;99069.22;2094514;28;20594;-80
2022/08/15 03:05:29;;;;;;;;;;;;;;;27.84;44.30;99065.59;2090012;28;19916;-80
2022/08/15 03:06:32;;;;;;;;;;;;;;;27.85;44.11;99066.44;2094319;28;19923;-81
2022/08/15 03:07:33;;;;;;;;;;;;;;;27.84;44.34;99062.84;2095718;28;20034;-81
2022/08/15 03:08:37;;;;;;;;;;;;;;;27.85;44.36;99063.69;2096912;28;19912;-79
2022/08/15 03:09:37;;;;;;;;;;;;;;;27.86;44.24;99062.63;2093530;28;19920;-80
2022/08/15 03:10:38;;;;;;;;;;;;;;;27.86;44.29;99065.38;2084326;28;20572;-80
2022/08/15 03:11:40;;;;;;;;;;;;;;;27.86;44.32;99059.84;2090882;28;20462;-80
2022/08/15 03:12:47;;;;;;;;;;;;;;;27.85;44.42;99058.97;2091791;28;20397;-81
2022/08/15 03:13:48;;;;;;;;;;;;;;;27.86;44.32;99059.84;2087241;28;20006;-79
2022/08/15 03:14:52;;;;;;;;;;;;;;;27.85;44.23;99058.13;2089193;28;19916;-80
2022/08/15 03:15:54;;;;;;;;;;;;;;;27.84;44.29;99054.53;2096928;28;20097;-79
2022/08/15 03:16:54;;;;;;;;;;;;;;;27.85;44.26;99058.13;2093027;28;19912;-80
2022/08/15 03:17:54;;;;;;;;;;;;;;;27.84;44.15;99065.59;2096096;28;19913;-81
2022/08/15 03:18:55;;;;;;;;;;;;;;;27.84;44.41;99057.31;2094202;28;19912;-79
2022/08/15 03:19:55;;;;;;;;;;;;;;;27.84;44.40;99059.22;2094875;28;19939;-82
2022/08/15 03:20:57;;;;;;;;;;;;;;;27.85;44.40;99060.91;2096152;28;20016;-80
2022/08/15 03:21:57;;;;;;;;;;;;;;;27.84;44.35;99062.84;2090377;28;20622;-81
2022/08/15 03:22:58;;;;;;;;;;;;;;;27.84;44.35;99062.84;2091387;28;20008;-80
2022/08/15 03:23:58;;;;;;;;;;;;;;;27.84;44.44;99062.00;2092480;28;20018;-81
2022/08/15 03:24:58;;;;;;;;;;;;;;;27.84;44.40;99067.53;2096811;28;19920;-81
2022/08/15 03:26:01;;;;;;;;;;;;;;;27.83;44.42;99063.94;2091329;28;19916;-77
2022/08/15 03:27:04;;;;;;;;;;;;;;;27.83;44.28;99065.84;2090357;28;20306;-77
2022/08/15 03:28:05;;;;;;;;;;;;;;;27.82;44.41;99067.75;2089521;28;20003;-76
2022/08/15 03:29:06;;;;;;;;;;;;;;;27.83;44.38;99065.84;2085642;28;19920;-77
2022/08/15 03:30:09;;;;;;;;;;;;;;;27.83;44.47;99066.69;2090265;28;19912;-77
2022/08/15 03:31:09;;;;;;;;;;;;;;;27.83;44.41;99065.84;2087891;28;19912;-77
2022/08/15 03:32:11;;;;;;;;;;;;;;;27.82;44.28;99058.59;2078735;28;19952;-77
2022/08/15 03:33:11;;;;;;;;;;;;;;;27.84;44.40;99070.31;2086467;28;19936;-77
2022/08/15 03:34:12;;;;;;;;;;;;;;;27.82;44.29;99064.13;2095340;28;19922;-77
2022/08/15 03:35:13;;;;;;;;;;;;;;;27.83;44.37;99066.69;2090255;28;19913;-78
2022/08/15 03:36:15;;;;;;;;;;;;;;;27.84;44.51;99070.31;2083150;28;19962;-75
2022/08/15 03:37:15;;;;;;;;;;;;;;;27.83;44.38;99055.63;2083630;28;19916;-77
2022/08/15 03:38:19;;;;;;;;;;;;;;;27.83;44.43;99069.47;2083965;28;19955;-78
2022/08/15 03:39:22;;;;;;;;;;;;;;;27.84;44.46;99065.59;2082720;28;19916;-77
2022/08/15 03:40:22;;;;;;;;;;;;;;;27.84;44.46;99067.53;2089068;28;20040;-78
2022/08/15 03:41:23;;;;;;;;;;;;;;;27.84;44.38;99073.06;2092065;28;19916;-77
2022/08/15 03:42:25;;;;;;;;;;;;;;;27.83;44.39;99071.38;2091887;28;19912;-77
2022/08/15 03:43:29;;;;;;;;;;;;;;;27.82;44.38;99075.19;2094546;28;19916;-76
2022/08/15 03:44:29;;;;;;;;;;;;;;;27.77;44.59;99068.41;2091072;28;20053;-77
2022/08/15 03:45:30;;;;;;;;;;;;;;;27.77;44.65;99079.50;2090677;28;19923;-77
2022/08/15 03:46:31;;;;;;;;;;;;;;;27.77;44.41;99075.88;2092411;28;20279;-77
2022/08/15 03:47:33;;;;;;;;;;;;;;;27.76;44.43;99065.91;2096175;28;19912;-77
2022/08/15 03:48:42;;;;;;;;;;;;;;;27.77;44.50;99078.66;2097590;28;19916;-77
2022/08/15 03:49:42;;;;;;;;;;;;;;;27.77;44.36;99073.13;2095599;28;19916;-76
2022/08/15 03:50:43;;;;;;;;;;;;;;;27.78;44.48;99075.66;2097845;28;19905;-76
2022/08/15 03:51:43;;;;;;;;;;;;;;;27.79;44.40;99079.28;2089151;28;19934;-76
2022/08/15 03:52:54;;;;;;;;;;;;;;;27.77;44.45;99073.97;2086539;28;19921;-77
2022/08/15 03:53:58;;;;;;;;;;;;;;;27.77;44.29;99067.59;2088476;28;19916;-77
2022/08/15 03:55:00;;;;;;;;;;;;;;;27.77;44.47;99073.97;2095198;28;19959;-78
2022/08/15 03:56:02;;;;;;;;;;;;;;;27.76;44.34;99066.75;2089599;28;20043;-77
2022/08/15 03:57:02;;;;;;;;;;;;;;;27.76;44.30;99077.81;2089957;28;19909;-77
2022/08/15 03:58:06;;;;;;;;;;;;;;;27.76;44.29;99072.28;2078999;28;20004;-78
2022/08/15 03:59:06;;;;;;;;;;;;;;;27.75;44.43;99072.50;2088539;28;20148;-76
2022/08/15 04:00:07;;;;;;;;;;;;;;;27.75;44.50;99070.56;2085749;28;19917;-77
2022/08/15 04:01:11;;;;;;;;;;;;;;;27.74;44.27;99079.97;2084547;28;20114;-78
2022/08/15 04:02:12;;;;;;;;;;;;;;;27.75;44.28;99080.81;2081128;28;19923;-77
2022/08/15 04:03:17;;;;;;;;;;;;;;;27.74;44.34;99082.75;2080775;28;20714;-77
2022/08/15 04:04:18;;;;;;;;;;;;;;;27.73;44.37;99080.19;2086924;28;20058;-77
2022/08/15 04:05:18;;;;;;;;;;;;;;;27.71;44.55;99080.44;2085732;28;19924;-77
2022/08/15 04:06:20;;;;;;;;;;;;;;;27.69;44.36;99077.03;2084492;28;19994;-77
2022/08/15 04:07:20;;;;;;;;;;;;;;;27.69;44.35;99074.28;2085684;28;20679;-77
2022/08/15 04:08:22;;;;;;;;;;;;;;;27.68;44.40;99078.09;2083338;28;20294;-77
2022/08/15 04:09:22;;;;;;;;;;;;;;;27.66;44.33;99077.53;2082156;28;20196;-76
2022/08/15 04:10:22;;;;;;;;;;;;;;;27.68;44.31;99077.28;2081567;28;20024;-77
2022/08/15 04:11:24;;;;;;;;;;;;;;;27.67;44.44;99068.13;2083090;28;19948;-78
2022/08/15 04:12:34;;;;;;;;;;;;;;;27.68;44.58;99064.25;2082513;28;19920;-77
2022/08/15 04:13:35;;;;;;;;;;;;;;;27.69;44.51;99070.69;2083588;28;19917;-76
2022/08/15 04:14:35;;;;;;;;;;;;;;;27.68;44.31;99069.81;2081308;28;19920;-77
2022/08/15 04:15:37;;;;;;;;;;;;;;;27.69;44.42;99077.03;2079297;28;19920;-77
2022/08/15 04:16:37;;;;;;;;;;;;;;;27.69;44.36;99065.97;2082609;28;19954;-78
2022/08/15 04:17:37;;;;;;;;;;;;;;;27.70;44.27;99067.66;2086095;28;20354;-76
2022/08/15 04:18:38;;;;;;;;;;;;;;;27.72;44.26;99075.75;2084869;28;19920;-77
2022/08/15 04:19:38;;;;;;;;;;;;;;;27.71;44.49;99069.38;2082824;28;19948;-77
2022/08/15 04:20:38;;;;;;;;;;;;;;;27.73;44.31;99069.97;2083735;28;20031;-77
2022/08/15 04:21:40;;;;;;;;;;;;;;;27.73;44.29;99066.34;2085793;28;19935;-79
2022/08/15 04:22:42;;;;;;;;;;;;;;;27.73;44.34;99075.53;2081234;28;19909;-77
2022/08/15 04:23:45;;;;;;;;;;;;;;;27.73;44.28;99072.75;2086797;28;20439;-77
2022/08/15 04:24:45;;;;;;;;;;;;;;;27.72;44.49;99073.81;2084147;28;19917;-77
2022/08/15 04:25:46;;;;;;;;;;;;;;;27.73;44.44;99072.75;2083002;28;19951;-78
2022/08/15 04:26:46;;;;;;;;;;;;;;;27.72;44.44;99070.19;2081555;28;19916;-78
2022/08/15 04:27:47;;;;;;;;;;;;;;;27.72;44.27;99073.81;2083026;28;19928;-76
2022/08/15 04:28:48;;;;;;;;;;;;;;;27.72;44.29;99070.19;2089805;28;20010;-76
2022/08/15 04:29:48;;;;;;;;;;;;;;;27.72;44.37;99064.66;2086720;28;19923;-78
2022/08/15 04:30:49;;;;;;;;;;;;;;;27.71;44.26;99069.38;2086299;28;19912;-78
2022/08/15 04:31:49;;;;;;;;;;;;;;;27.72;44.30;99070.19;2081003;28;20453;-77
2022/08/15 04:32:51;;;;;;;;;;;;;;;27.71;44.37;99071.28;2082196;28;20016;-77
2022/08/15 04:33:51;;;;;;;;;;;;;;;27.71;44.50;99074.91;2089548;28;19913;-77
2022/08/15 04:34:51;;;;;;;;;;;;;;;27.72;44.40;99071.03;2084283;28;19909;-77
2022/08/15 04:36:09;;;;;;;;;;;;;;;27.72;44.48;99071.03;2082862;28;19988;-77
2022/08/15 04:37:11;;;;;;;;;;;;;;;27.73;44.28;99069.97;2081409;28;19948;-77
2022/08/15 04:38:12;;;;;;;;;;;;;;;27.73;44.22;99071.88;2081783;28;19913;-77
2022/08/15 04:39:13;;;;;;;;;;;;;;;27.74;44.19;99079.13;2085157;28;19917;-78
2022/08/15 04:40:14;;;;;;;;;;;;;;;27.73;44.26;99069.97;2083786;28;20031;-78
2022/08/15 04:41:15;;;;;;;;;;;;;;;27.74;44.29;99068.91;2087917;28;19916;-78
2022/08/15 04:42:16;;;;;;;;;;;;;;;27.74;44.28;99074.44;2081489;28;20246;-78
2022/08/15 04:43:18;;;;;;;;;;;;;;;27.75;44.18;99075.28;2085726;28;20902;-78
2022/08/15 04:44:18;;;;;;;;;;;;;;;27.75;44.21;99075.28;2084819;28;19904;-78
2022/08/15 04:45:19;;;;;;;;;;;;;;;27.75;44.40;99069.72;2081245;28;19916;-78
2022/08/15 04:46:20;;;;;;;;;;;;;;;27.75;44.14;99080.81;2085411;28;19913;-77
2022/08/15 04:47:21;;;;;;;;;;;;;;;27.75;44.14;99081.66;2082249;28;19923;-78
2022/08/15 04:48:21;;;;;;;;;;;;;;;27.76;44.33;99076.97;2072961;28;19913;-77
2022/08/15 04:49:21;;;;;;;;;;;;;;;27.76;44.33;99082.50;2085020;28;19946;-77
2022/08/15 04:50:22;;;;;;;;;;;;;;;27.76;44.26;99077.81;2082598;28;19916;-77
2022/08/15 04:51:22;;;;;;;;;;;;;;;27.77;44.09;99081.44;2085520;28;19969;-77
2022/08/15 04:52:26;;;;;;;;;;;;;;;27.77;44.20;99084.19;2084803;28;19916;-77
2022/08/15 04:53:28;;;;;;;;;;;;;;;27.76;44.05;99083.34;2085384;28;20353;-78
2022/08/15 04:54:28;;;;;;;;;;;;;;;27.76;44.26;99077.81;2081989;28;19916;-77
2022/08/15 04:55:28;;;;;;;;;;;;;;;27.76;44.08;99083.34;2082795;28;19912;-77
2022/08/15 04:56:29;;;;;;;;;;;;;;;27.76;44.25;99086.13;2088966;28;20048;-76
2022/08/15 04:57:29;;;;;;;;;;;;;;;27.76;44.26;99077.81;2092658;28;19916;-76
2022/08/15 04:58:30;;;;;;;;;;;;;;;27.77;44.27;99084.19;2090420;28;20365;-77
2022/08/15 04:59:31;;;;;;;;;;;;;;;27.75;44.30;99073.34;2090074;28;19962;-77
2022/08/15 05:00:31;;;;;;;;;;;;;;;27.75;44.10;99081.66;2090895;28;20669;-77
2022/08/15 05:01:31;;;;;;;;;;;;;;;27.76;44.28;99082.50;2089150;28;19912;-78
2022/08/15 05:02:32;;;;;;;;;;;;;;;27.74;44.11;99082.75;2089528;28;19920;-76
2022/08/15 05:03:32;;;;;;;;;;;;;;;27.74;44.26;99079.97;2094272;28;20538;-77
2022/08/15 05:04:33;;;;;;;;;;;;;;;27.74;44.31;99079.97;2095591;28;20565;-77
2022/08/15 05:05:36;;;;;;;;;;;;;;;27.73;44.17;99080.19;2087930;28;20010;-78
2022/08/15 05:06:36;;;;;;;;;;;;;;;27.73;44.34;99078.28;2088308;28;19920;-78
2022/08/15 05:07:37;;;;;;;;;;;;;;;27.73;44.29;99089.38;2086962;28;19923;-77
2022/08/15 05:08:42;;;;;;;;;;;;;;;27.73;44.15;99078.28;2090093;28;19908;-78
2022/08/15 05:09:43;;;;;;;;;;;;;;;27.73;44.13;99083.81;2088665;28;19917;-78
2022/08/15 05:10:44;;;;;;;;;;;;;;;27.73;44.33;99086.59;2090589;28;19916;-78
2022/08/15 05:11:44;;;;;;;;;;;;;;;27.74;44.28;99088.28;2095767;28;19987;-77
2022/08/15 05:12:45;;;;;;;;;;;;;;;27.73;44.28;99085.72;2089222;28;19920;-77
2022/08/15 05:13:45;;;;;;;;;;;;;;;27.72;44.19;99082.13;2094171;28;19912;-77
2022/08/15 05:14:46;;;;;;;;;;;;;;;27.73;44.26;99089.38;2095765;28;19931;-78
2022/08/15 05:15:47;;;;;;;;;;;;;;;27.72;44.29;99090.41;2095711;28;19944;-76
2022/08/15 05:16:47;;;;;;;;;;;;;;;27.72;44.20;99087.66;2095774;28;19920;-77
2022/08/15 05:17:48;;;;;;;;;;;;;;;27.72;44.30;99093.19;2097725;28;19919;-77
2022/08/15 05:18:49;;;;;;;;;;;;;;;27.73;44.27;99097.66;2099660;28;20004;-77
2022/08/15 05:19:49;;;;;;;;;;;;;;;27.72;44.30;99093.19;2100054;28;20333;-78
2022/08/15 05:20:50;;;;;;;;;;;;;;;27.73;44.14;99100.44;2094056;28;19927;-77
2022/08/15 05:21:50;;;;;;;;;;;;;;;27.73;44.12;99097.66;2090843;28;19916;-77
2022/08/15 05:22:58;;;;;;;;;;;;;;;27.73;44.19;99097.66;2094129;28;19927;-77
2022/08/15 05:23:58;;;;;;;;;;;;;;;27.74;44.28;99098.50;2093237;28;20431;-78
2022/08/15 05:24:59;;;;;;;;;;;;;;;27.73;44.42;99094.03;2083008;28;19916;-76
2022/08/15 05:26:01;;;;;;;;;;;;;;;27.72;44.26;99098.72;2082491;28;19999;-78